KELY/ELY METAR and TAF weather

Enter ICAO airport designator
Station Type Date Time Source
KELY METAR 2022/07/03 12:53 UTC NOAA

KELY 031253Z AUTO 17008KT 10SM CLR 13/M02 A3002 RMK AO2 SLP058 T01331017


Station Type Date Time Source
KELY Decoded METAR 2022/07/03 12:53 UTC NOAA

ELY AIRPORT (YELLAND FIELD), NV, United States (KELY) 39-18N 114-51W 1906M
Jul 03, 2022 - 08:53 AM EDT / 2022.07.03 1253 UTC
Wind: from the S (170 degrees) at 9 MPH (8 KT):0
Visibility: 10 mile(s):0
Sky conditions: clear
Temperature: 55.9 F (13.3 C)
Dew Point: 28.9 F (-1.7 C)
Relative Humidity: 35%
Pressure (altimeter): 30.02 in. Hg (1016 hPa)
ob: KELY 031253Z AUTO 17008KT 10SM CLR 13/M02 A3002 RMK AO2 SLP058 T01331017
cycle: 13

Station Type Date Time Source
KELY TAF 2022/07/03 12:22 UTC NOAA

TAF KELY 031120Z 0312/0412 18012G22KT P6SM FEW110
FM031800 20020G30KT 6SM HZ SKC
FM040600 18010KT P6SM SKC

Example: see airport list